createdAt,value
2022-10-02T00:02:27.655Z,13.08
2022-10-02T00:05:03.378Z,13.06
2022-10-02T00:08:03.393Z,12.99
2022-10-02T00:11:01.939Z,12.91
2022-10-02T00:13:36.747Z,12.91
2022-10-02T00:16:13.146Z,12.86
2022-10-02T00:18:41.435Z,12.83
2022-10-02T00:21:28.978Z,12.81
2022-10-02T00:24:00.036Z,12.74
2022-10-02T00:26:35.922Z,12.84
2022-10-02T00:29:32.783Z,12.76
2022-10-02T00:32:17.331Z,12.73
2022-10-02T00:34:50.325Z,12.71
2022-10-02T00:37:34.863Z,12.72
2022-10-02T00:40:38.103Z,12.71
2022-10-02T00:43:26.691Z,12.70
2022-10-02T00:46:03.080Z,12.71
2022-10-02T00:49:11.869Z,12.65
2022-10-02T00:51:52.692Z,12.67
2022-10-02T00:54:48.763Z,12.65
2022-10-02T00:57:36.768Z,12.62
2022-10-02T01:00:07.464Z,12.61
2022-10-02T01:03:12.049Z,12.61
2022-10-02T01:05:40.330Z,12.54
2022-10-02T01:08:08.491Z,12.53
2022-10-02T01:10:38.289Z,12.54
2022-10-02T01:13:06.449Z,12.45
2022-10-02T01:15:39.389Z,12.55
2022-10-02T01:18:07.798Z,12.52
2022-10-02T01:20:42.510Z,12.45
2022-10-02T01:23:28.228Z,12.48
2022-10-02T01:25:55.389Z,12.39
2022-10-02T01:28:23.131Z,12.38
2022-10-02T01:30:56.035Z,12.39
2022-10-02T01:33:23.948Z,12.25
2022-10-02T01:35:51.549Z,12.11
2022-10-02T01:38:22.622Z,12.17
2022-10-02T01:40:49.791Z,12.12
2022-10-02T01:43:21.003Z,12.08
2022-10-02T01:46:33.183Z,12.05
2022-10-02T01:49:13.037Z,11.96
2022-10-02T01:52:15.549Z,11.90
2022-10-02T01:54:42.858Z,11.86
2022-10-02T01:57:33.717Z,11.83
2022-10-02T02:00:19.463Z,11.75
2022-10-02T02:03:13.391Z,11.67
2022-10-02T02:05:51.219Z,11.63
2022-10-02T02:09:02.558Z,11.53
2022-10-02T02:11:30.749Z,11.52
2022-10-02T02:14:17.152Z,11.49
2022-10-02T02:16:48.995Z,11.46
2022-10-02T02:19:36.618Z,11.43
2022-10-02T02:22:27.039Z,11.44
2022-10-02T02:25:02.120Z,11.42
2022-10-02T02:27:36.338Z,11.38
2022-10-02T02:30:08.411Z,11.30
2022-10-02T02:32:39.117Z,11.35
2022-10-02T02:35:12.426Z,11.36
2022-10-02T02:37:41.320Z,11.43
2022-10-02T02:40:15.416Z,11.39
2022-10-02T02:42:48.919Z,11.35
2022-10-02T02:45:32.251Z,11.32
2022-10-02T02:48:09.817Z,11.43
2022-10-02T02:51:18.307Z,11.43
2022-10-02T02:54:05.496Z,11.45
2022-10-02T02:56:34.249Z,11.42
2022-10-02T02:59:11.672Z,11.43
2022-10-02T03:01:38.778Z,11.44
2022-10-02T03:04:06.380Z,11.40
2022-10-02T03:06:41.503Z,11.46
2022-10-02T03:09:17.276Z,11.40
2022-10-02T03:12:12.275Z,11.39
2022-10-02T03:15:03.113Z,11.45
2022-10-02T03:17:34.416Z,11.44
2022-10-02T03:20:26.290Z,11.40
2022-10-02T03:23:01.403Z,11.34
2022-10-02T03:25:33.917Z,11.33
2022-10-02T03:28:01.149Z,11.30
2022-10-02T03:30:29.223Z,11.35
2022-10-02T03:33:01.200Z,11.34
2022-10-02T03:35:29.896Z,11.27
2022-10-02T03:38:03.904Z,11.27
2022-10-02T03:40:31.153Z,11.23
2022-10-02T03:42:59.002Z,11.31
2022-10-02T03:45:49.452Z,11.23
2022-10-02T03:48:15.129Z,11.31
2022-10-02T03:50:42.343Z,11.29
2022-10-02T03:53:18.640Z,11.21
2022-10-02T03:55:52.521Z,11.23
2022-10-02T03:58:21.015Z,11.23
2022-10-02T04:01:11.019Z,11.12
2022-10-02T04:03:56.242Z,11.00
2022-10-02T04:06:38.492Z,10.90
2022-10-02T04:09:21.340Z,10.81
2022-10-02T04:11:57.497Z,10.77
2022-10-02T04:14:39.420Z,10.68
2022-10-02T04:17:14.062Z,10.67
2022-10-02T04:19:59.538Z,10.70
2022-10-02T04:22:41.638Z,10.74
2022-10-02T04:25:21.533Z,10.74
2022-10-02T04:27:55.519Z,10.79
2022-10-02T04:30:23.573Z,10.69
2022-10-02T04:32:51.537Z,10.69
2022-10-02T04:35:48.790Z,10.64
2022-10-02T04:38:27.940Z,10.67
2022-10-02T04:41:23.525Z,10.60
2022-10-02T04:43:59.879Z,10.58
2022-10-02T04:47:05.594Z,10.62
2022-10-02T04:49:41.676Z,10.58
2022-10-02T04:52:46.067Z,10.61
2022-10-02T04:55:25.835Z,10.70
2022-10-02T04:58:20.633Z,10.67
2022-10-02T05:00:57.147Z,10.67
2022-10-02T05:03:49.526Z,10.60
2022-10-02T05:06:19.589Z,10.60
2022-10-02T05:09:13.383Z,10.65
2022-10-02T05:11:43.358Z,10.66
2022-10-02T05:14:35.393Z,10.73
2022-10-02T05:17:44.156Z,10.82
2022-10-02T05:20:24.827Z,10.69
2022-10-02T05:23:04.391Z,10.80
2022-10-02T05:25:43.563Z,10.78
2022-10-02T05:28:26.529Z,10.75
2022-10-02T05:31:12.683Z,10.64
2022-10-02T05:33:53.162Z,10.71
2022-10-02T05:36:45.955Z,10.81
2022-10-02T05:39:23.104Z,10.84
2022-10-02T05:42:17.196Z,10.86
2022-10-02T05:45:01.471Z,10.85
2022-10-02T05:47:41.662Z,10.80
2022-10-02T05:50:22.930Z,10.85
2022-10-02T05:52:53.329Z,10.71
2022-10-02T05:55:37.114Z,10.57
2022-10-02T05:58:10.764Z,10.80
2022-10-02T06:00:46.981Z,10.74
2022-10-02T06:03:31.352Z,10.69
2022-10-02T08:55:24.653Z,11.54
2022-10-02T10:15:33.759Z,12.38
2022-10-02T10:22:18.395Z,12.27
2022-10-02T10:25:58.806Z,12.37
2022-10-02T10:28:56.850Z,12.32
2022-10-02T10:32:08.169Z,12.63
2022-10-02T10:34:57.091Z,12.61
2022-10-02T10:38:40.577Z,12.73
2022-10-02T10:41:36.965Z,12.88
2022-10-02T10:44:48.886Z,12.68
2022-10-02T10:47:38.769Z,12.69
2022-10-02T10:50:17.952Z,12.70
2022-10-02T10:53:10.776Z,12.65
2022-10-02T10:56:12.522Z,12.69
2022-10-02T10:59:07.126Z,12.70
2022-10-02T11:02:14.981Z,12.80
2022-10-02T11:04:57.870Z,12.72
2022-10-02T11:07:35.232Z,12.60
2022-10-02T11:10:12.384Z,12.71
2022-10-02T11:12:57.997Z,12.78
2022-10-02T11:15:41.640Z,12.74
2022-10-02T11:18:15.757Z,12.88
2022-10-02T11:20:58.386Z,13.09
2022-10-02T11:23:43.897Z,13.26
2022-10-02T11:26:36.026Z,13.27
2022-10-02T11:29:21.823Z,13.15
2022-10-02T11:32:19.870Z,13.00
2022-10-02T11:35:18.961Z,12.76
2022-10-02T11:38:03.933Z,12.79
2022-10-02T11:40:53.339Z,12.77
2022-10-02T11:43:51.669Z,12.71
2022-10-02T11:46:43.402Z,12.93
2022-10-02T11:49:42.373Z,13.13
2022-10-02T11:52:49.684Z,13.21
2022-10-02T11:55:29.168Z,13.59
2022-10-02T11:58:08.571Z,14.07
2022-10-02T12:00:39.217Z,14.58
2022-10-02T12:03:23.917Z,14.91
